Time;durP1;ratioP1;P1;durP2;ratioP2;P2;SDS_P1;SDS_P2;PMS_P1;PMS_P2;Temp;Humidity;BMP_temperature;BMP_pressure;BME280_temperature;BME280_humidity;BME280_pressure;Samples;Min_cycle;Max_cycle;Signal;HPM_P1;HPM_P2
2022/08/13 00:01:11;;;;;;;;;5.75;5.75;;;;;28.18;26.11;100829.19;5021447;28;46354;-66
2022/08/13 00:03:37;;;;;;;;;5.75;5.75;;;;;28.19;26.23;100835.56;5021231;28;45455;-66
2022/08/13 00:06:08;;;;;;;;;7.00;7.00;;;;;28.17;25.77;100838.47;5021605;28;45397;-66
2022/08/13 00:08:35;;;;;;;;;7.75;6.25;;;;;28.20;25.80;100842.75;5021345;28;45471;-66
2022/08/13 00:11:02;;;;;;;;;5.50;5.50;;;;;28.17;25.63;100841.22;5021364;28;47010;-66
2022/08/13 00:13:28;;;;;;;;;7.00;5.75;;;;;28.18;25.65;100845.66;5020890;28;45428;-66
2022/08/13 00:15:53;;;;;;;;;6.00;5.00;;;;;28.18;25.68;100839.31;5018562;28;45234;-66
2022/08/13 00:18:21;;;;;;;;;5.25;5.25;;;;;28.20;25.65;100843.66;5019490;28;45569;-66
2022/08/13 00:20:50;;;;;;;;;6.00;6.00;;;;;28.19;26.02;100846.56;5019011;28;46157;-66
2022/08/13 00:23:18;;;;;;;;;5.25;5.25;;;;;28.17;25.18;100834.88;5020894;28;45562;-66
2022/08/13 00:25:45;;;;;;;;;5.25;5.25;;;;;28.14;25.18;100835.19;5021177;28;45217;-66
2022/08/13 00:28:11;;;;;;;;;6.00;6.00;;;;;28.15;25.51;100837.78;5020860;28;45174;-66
2022/08/13 00:30:38;;;;;;;;;6.50;6.50;;;;;28.12;25.06;100843.59;5020916;28;47048;-66
2022/08/13 00:33:03;;;;;;;;;6.00;6.00;;;;;28.13;24.96;100847.19;5020975;28;45505;-66
2022/08/13 00:35:29;;;;;;;;;5.00;5.00;;;;;28.13;25.24;100848.03;5021226;28;45351;-66
2022/08/13 00:37:57;;;;;;;;;5.25;5.25;;;;;28.12;25.34;100843.59;5020951;28;45620;-66
2022/08/13 00:40:24;;;;;;;;;4.75;4.75;;;;;28.10;25.40;100842.91;5020732;28;46625;-66
2022/08/13 00:42:50;;;;;;;;;7.25;5.00;;;;;28.08;24.94;100842.19;5020471;28;45720;-66
2022/08/13 00:45:16;;;;;;;;;7.00;6.50;;;;;28.09;25.75;100841.16;5020873;28;45329;-66
2022/08/13 00:50:27;;;;;;;;;6.00;6.00;;;;;28.05;25.41;100845.25;5020470;28;45163;-66
2022/08/13 00:52:54;;;;;;;;;6.00;6.00;;;;;28.06;25.40;100842.34;5020497;28;45523;-66
2022/08/13 00:55:20;;;;;;;;;5.00;5.00;;;;;28.07;25.09;100844.06;5020683;28;45414;-66
2022/08/13 00:57:48;;;;;;;;;5.75;5.00;;;;;28.05;25.54;100837.88;5020404;28;45419;-66
2022/08/13 01:00:19;;;;;;;;;5.00;5.00;;;;;28.05;25.34;100843.38;5019175;28;47139;-66
2022/08/13 01:02:50;;;;;;;;;5.00;5.00;;;;;28.03;25.86;100845.44;5020551;28;45561;-66
2022/08/13 01:05:15;;;;;;;;;5.00;5.00;;;;;28.03;25.66;100842.69;5020582;28;45412;-66
2022/08/13 01:07:41;;;;;;;;;4.25;4.25;;;;;28.04;25.38;100844.38;5020531;28;45154;-66
2022/08/13 01:10:09;;;;;;;;;3.25;3.25;;;;;28.03;25.58;100848.19;5020250;28;46234;-66
2022/08/13 01:12:37;;;;;;;;;5.25;5.25;;;;;28.03;25.51;100850.03;5020048;28;45316;-66
2022/08/13 01:15:05;;;;;;;;;6.00;6.00;;;;;28.00;25.41;100845.75;5020217;28;45333;-66
2022/08/13 01:17:31;;;;;;;;;6.00;6.00;;;;;27.96;25.37;100846.22;5018798;28;46686;-66
2022/08/13 01:19:57;;;;;;;;;7.00;6.50;;;;;27.91;25.51;100839.28;5019994;28;46084;-66
2022/08/13 01:22:25;;;;;;;;;6.25;6.25;;;;;27.91;25.37;100853.00;5020364;28;45475;-66
2022/08/13 01:24:51;;;;;;;;;5.00;4.75;;;;;27.88;25.02;100838.75;5020264;28;45320;-66
2022/08/13 01:27:23;;;;;;;;;7.00;6.50;;;;;27.89;25.54;100840.50;5020047;28;45377;-66
2022/08/13 01:29:50;;;;;;;;;3.75;3.50;;;;;27.87;25.29;100842.53;5020209;28;45375;-66
2022/08/13 01:32:16;;;;;;;;;6.50;6.00;;;;;27.86;26.04;100841.66;5019829;28;45309;-66
2022/08/13 01:34:48;;;;;;;;;4.25;4.25;;;;;27.84;25.62;100840.09;5020319;28;45463;-66
2022/08/13 01:37:14;;;;;;;;;4.75;4.75;;;;;27.87;25.80;100848.03;5019880;28;45463;-66
2022/08/13 01:39:40;;;;;;;;;6.50;6.50;;;;;27.83;25.57;100844.75;5020014;28;46298;-66
2022/08/13 01:42:09;;;;;;;;;6.75;6.75;;;;;27.83;26.00;100844.75;5019734;28;45343;-66
2022/08/13 01:44:35;;;;;;;;;8.25;6.75;;;;;27.80;26.02;100842.31;5019835;28;45313;-66
2022/08/13 01:52:35;;;;;;;;;6.00;6.00;;;;;27.58;26.45;100843.66;5019618;28;45515;-66
2022/08/13 01:55:04;;;;;;;;;7.25;6.25;;;;;27.51;26.16;100839.84;5019860;28;45284;-66
2022/08/13 01:57:33;;;;;;;;;6.25;6.25;;;;;27.44;26.32;100841.50;5019495;28;45447;-66
2022/08/13 02:00:00;;;;;;;;;6.50;6.50;;;;;27.38;25.93;100842.13;5019914;28;45372;-66
2022/08/13 02:02:27;;;;;;;;;6.25;6.25;;;;;27.32;26.44;100849.94;5019738;28;45367;-66
2022/08/13 02:04:56;;;;;;;;;8.50;7.00;;;;;27.26;26.25;100842.31;5019825;28;45246;-66
2022/08/13 02:07:21;;;;;;;;;5.50;5.50;;;;;27.25;26.42;100851.56;5019807;28;45217;-66
2022/08/13 02:09:47;;;;;;;;;7.25;6.00;;;;;27.23;26.38;100850.88;5019457;28;46137;-66
2022/08/13 02:12:14;;;;;;;;;5.75;5.75;;;;;27.18;26.72;100847.69;5019442;28;45359;-66
2022/08/13 02:14:42;;;;;;;;;5.00;5.00;;;;;27.16;26.53;100844.25;5019262;28;45307;-66
2022/08/13 02:17:25;;;;;;;;;6.00;6.00;;;;;27.15;26.62;100853.53;5018688;28;45340;-66
2022/08/13 02:19:53;;;;;;;;;5.75;5.00;;;;;27.11;26.64;100850.19;5017162;28;46345;-66
2022/08/13 02:22:19;;;;;;;;;6.00;6.00;;;;;27.05;26.57;100849.97;5019353;28;45353;-66
2022/08/13 02:24:52;;;;;;;;;4.75;4.75;;;;;27.06;26.64;100854.44;5019578;28;45494;-66
2022/08/13 02:27:21;;;;;;;;;8.00;7.00;;;;;27.01;26.74;100849.41;5017999;28;45478;-66
2022/08/13 02:29:49;;;;;;;;;4.75;4.75;;;;;26.99;27.07;100845.97;5019992;28;46186;-66
2022/08/13 02:32:16;;;;;;;;;6.00;6.00;;;;;26.99;27.07;100854.19;5022679;28;45438;-66
